Time,TemperatureF,DewpointF,PressureIn,WindDirection,WindDirectionDegrees,WindSpeedMPH,WindSpeedGustMPH,Humidity,HourlyPrecipIn,Conditions,Clouds,dailyrainin,SoftwareType,DateUTC
2013-08-26 00:10:00,72.2,65.0,30.10,SSW,204,0.0,-999.0,79,-99.99,,,0.00,weatherlink.com 1.10,2013-08-26 04:10:00,
2013-08-26 00:25:00,71.7,65.0,30.10,SSW,205,2.0,-999.0,80,-99.99,,,0.00,weatherlink.com 1.10,2013-08-26 04:25:00,
2013-08-26 00:40:00,71.2,65.0,30.09,SSW,206,0.0,-999.0,81,-99.99,,,0.00,weatherlink.com 1.10,2013-08-26 04:40:00,
2013-08-26 00:55:00,70.8,65.0,30.09,SSW,206,0.0,-999.0,83,-99.99,,,0.00,weatherlink.com 1.10,2013-08-26 04:55:00,
2013-08-26 01:10:00,70.8,65.0,30.09,SSW,210,3.0,-999.0,83,-99.99,,,0.00,weatherlink.com 1.10,2013-08-26 05:10:00,
2013-08-26 01:25:00,70.4,65.0,30.08,SW,215,0.0,-999.0,84,-99.99,,,0.00,weatherlink.com 1.10,2013-08-26 05:25:00,
2013-08-26 01:40:00,70.3,65.0,30.08,SW,220,3.0,-999.0,84,-99.99,,,0.00,weatherlink.com 1.10,2013-08-26 05:40:00,
2013-08-26 01:55:00,69.5,65.0,30.07,SW,220,3.0,-999.0,86,-99.99,,,0.00,weatherlink.com 1.10,2013-08-26 05:55:00,
2013-08-26 02:10:00,69.4,65.0,30.06,SW,220,6.0,-999.0,86,-99.99,,,0.00,weatherlink.com 1.10,2013-08-26 06:10:00,
2013-08-26 02:25:00,69.2,65.0,30.05,SW,219,5.0,-999.0,87,-99.99,,,0.00,weatherlink.com 1.10,2013-08-26 06:25:00,
2013-08-26 02:40:00,69.8,66.0,30.05,SW,221,5.0,-999.0,87,-99.99,,,0.00,weatherlink.com 1.10,2013-08-26 06:40:00,
2013-08-26 02:55:00,69.7,65.0,30.05,SSW,212,0.0,-999.0,86,-99.99,,,0.00,weatherlink.com 1.10,2013-08-26 06:55:00,
2013-08-26 03:10:00,68.7,65.0,30.05,SSW,212,4.0,-999.0,88,-99.99,,,0.00,weatherlink.com 1.10,2013-08-26 07:10:00,
2013-08-26 03:25:00,68.5,65.0,30.05,SSW,213,3.0,-999.0,88,-99.99,,,0.00,weatherlink.com 1.10,2013-08-26 07:25:00,
2013-08-26 03:40:00,68.8,65.0,30.07,SW,224,5.0,-999.0,88,-99.99,,,0.00,weatherlink.com 1.10,2013-08-26 07:40:00,
2013-08-26 03:55:00,68.9,65.0,30.07,SSW,207,0.0,-999.0,88,-99.99,,,0.00,weatherlink.com 1.10,2013-08-26 07:55:00,
2013-08-26 04:10:00,68.5,65.0,30.07,SSW,207,0.0,-999.0,88,-99.99,,,0.00,weatherlink.com 1.10,2013-08-26 08:10:00,
2013-08-26 04:25:00,67.7,64.0,30.06,SSW,207,0.0,-999.0,89,-99.99,,,0.00,weatherlink.com 1.10,2013-08-26 08:25:00,
2013-08-26 04:40:00,67.7,65.0,30.06,SSW,207,0.0,-999.0,90,-99.99,,,0.00,weatherlink.com 1.10,2013-08-26 08:40:00,
2013-08-26 04:55:00,67.6,65.0,30.05,SSW,207,0.0,-999.0,90,-99.99,,,0.00,weatherlink.com 1.10,2013-08-26 08:55:00,
2013-08-26 05:10:00,67.4,65.0,30.06,SSW,207,0.0,-999.0,90,-99.99,,,0.00,weatherlink.com 1.10,2013-08-26 09:10:00,
2013-08-26 05:25:00,67.9,65.0,30.07,SSW,207,3.0,-999.0,91,-99.99,,,0.00,weatherlink.com 1.10,2013-08-26 09:25:00,
2013-08-26 05:40:00,68.1,65.0,30.06,SSW,207,0.0,-999.0,90,-99.99,,,0.00,weatherlink.com 1.10,2013-08-26 09:40:00,
2013-08-26 05:55:00,68.0,65.0,30.06,SSW,207,2.0,-999.0,90,-99.99,,,0.00,weatherlink.com 1.10,2013-08-26 09:55:00,
2013-08-26 06:10:00,68.2,65.0,30.06,SSW,207,0.0,-999.0,90,-99.99,,,0.00,weatherlink.com 1.10,2013-08-26 10:10:00,
2013-08-26 06:25:00,68.1,65.0,30.06,SSW,207,0.0,-999.0,90,-99.99,,,0.00,weatherlink.com 1.10,2013-08-26 10:25:00,
2013-08-26 06:40:00,68.3,65.0,30.07,SSW,207,0.0,-999.0,90,-99.99,,,0.00,weatherlink.com 1.10,2013-08-26 10:40:00,
2013-08-26 06:55:00,68.7,65.0,30.07,SSW,208,3.0,-999.0,89,-99.99,,,0.00,weatherlink.com 1.10,2013-08-26 10:55:00,
2013-08-26 07:10:00,69.0,65.0,30.07,SW,217,6.0,-999.0,88,-99.99,,,0.00,weatherlink.com 1.10,2013-08-26 11:10:00,
2013-08-26 07:25:00,69.0,65.0,30.07,SW,214,7.0,-999.0,88,-99.99,,,0.00,weatherlink.com 1.10,2013-08-26 11:25:00,
2013-08-26 07:40:00,69.3,66.0,30.07,SW,215,5.0,-999.0,88,-99.99,,,0.00,weatherlink.com 1.10,2013-08-26 11:40:00,
2013-08-26 07:55:00,69.9,66.0,30.07,SW,215,0.0,-999.0,87,-99.99,,,0.00,weatherlink.com 1.10,2013-08-26 11:55:00,
2013-08-26 08:10:00,71.1,67.0,30.07,SW,217,5.0,-999.0,86,-99.99,,,0.00,weatherlink.com 1.10,2013-08-26 12:10:00,
2013-08-26 08:25:00,71.9,67.0,30.06,SSW,212,6.0,-999.0,84,-99.99,,,0.00,weatherlink.com 1.10,2013-08-26 12:25:00,
2013-08-26 08:41:00,72.6,67.0,30.05,WSW,246,6.0,-999.0,82,-99.99,,,0.00,weatherlink.com 1.10,2013-08-26 12:41:00,
2013-08-26 08:55:00,73.3,67.0,30.05,SW,226,7.0,-999.0,81,-99.99,,,0.00,weatherlink.com 1.10,2013-08-26 12:55:00,
2013-08-26 09:10:00,73.7,67.0,30.05,WSW,253,5.0,-999.0,80,-99.99,,,0.00,weatherlink.com 1.10,2013-08-26 13:10:00,
2013-08-26 09:25:00,73.8,67.0,30.05,WSW,246,8.0,-999.0,80,-99.99,,,0.00,weatherlink.com 1.10,2013-08-26 13:25:00,
2013-08-26 09:40:00,74.4,67.0,30.05,SSW,209,6.0,-999.0,78,-99.99,,,0.00,weatherlink.com 1.10,2013-08-26 13:40:00,
2013-08-26 09:55:00,74.5,67.0,30.05,SW,234,3.0,-999.0,77,-99.99,,,0.00,weatherlink.com 1.10,2013-08-26 13:55:00,
2013-08-26 10:10:00,74.5,67.0,30.07,West,271,7.0,-999.0,78,-99.99,,,0.00,weatherlink.com 1.10,2013-08-26 14:10:00,
2013-08-26 10:25:00,74.6,67.0,30.07,West,259,5.0,-999.0,78,-99.99,,,0.00,weatherlink.com 1.10,2013-08-26 14:25:00,
2013-08-26 10:40:00,75.1,67.0,30.07,West,262,6.0,-999.0,77,-99.99,,,0.00,weatherlink.com 1.10,2013-08-26 14:40:00,
2013-08-26 10:55:00,76.4,68.0,30.06,West,261,8.0,-999.0,76,-99.99,,,0.00,weatherlink.com 1.10,2013-08-26 14:55:00,
2013-08-26 11:10:00,76.2,68.0,30.07,WSW,252,9.0,-999.0,76,-99.99,,,0.00,weatherlink.com 1.10,2013-08-26 15:10:00,
2013-08-26 11:25:00,76.6,68.0,30.07,West,271,6.0,-999.0,75,-99.99,,,0.00,weatherlink.com 1.10,2013-08-26 15:25:00,
2013-08-26 11:40:00,76.3,68.0,30.05,WSW,250,5.0,-999.0,76,-99.99,,,0.00,weatherlink.com 1.10,2013-08-26 15:40:00,
2013-08-26 11:55:00,75.5,69.0,30.04,SW,227,5.0,-999.0,79,-99.99,,,0.00,weatherlink.com 1.10,2013-08-26 15:55:00,
2013-08-26 12:10:00,74.8,69.0,30.05,WSW,252,5.0,-999.0,82,-99.99,,,0.00,weatherlink.com 1.10,2013-08-26 16:10:00,
2013-08-26 12:25:00,75.1,69.0,30.03,SSW,209,7.0,-999.0,82,-99.99,,,0.00,weatherlink.com 1.10,2013-08-26 16:25:00,
2013-08-26 12:40:00,75.5,70.0,30.02,SSW,200,7.0,-999.0,83,-99.99,,,0.00,weatherlink.com 1.10,2013-08-26 16:40:00,
2013-08-26 12:55:00,75.9,70.0,30.00,SSW,202,11.0,-999.0,81,-99.99,,,0.00,weatherlink.com 1.10,2013-08-26 16:55:00,
2013-08-26 13:10:00,76.0,70.0,29.99,SW,224,15.0,-999.0,81,-99.99,,,0.00,weatherlink.com 1.10,2013-08-26 17:10:00,
2013-08-26 13:25:00,75.8,70.0,30.00,SW,236,9.0,-999.0,81,-99.99,,,0.00,weatherlink.com 1.10,2013-08-26 17:25:00,
2013-08-26 13:40:00,75.8,70.0,29.99,West,263,10.0,-999.0,81,-99.99,,,0.00,weatherlink.com 1.10,2013-08-26 17:40:00,
2013-08-26 13:55:00,76.4,70.0,30.00,WNW,296,8.0,-999.0,80,-99.99,,,0.00,weatherlink.com 1.10,2013-08-26 17:55:00,
2013-08-26 14:10:00,76.0,69.0,29.99,WSW,250,4.0,-999.0,80,-99.99,,,0.00,weatherlink.com 1.10,2013-08-26 18:10:00,
2013-08-26 14:25:00,75.7,69.0,30.00,West,267,6.0,-999.0,80,-99.99,,,0.00,weatherlink.com 1.10,2013-08-26 18:25:00,
2013-08-26 14:40:00,76.3,70.0,30.00,West,267,5.0,-999.0,80,-99.99,,,0.00,weatherlink.com 1.10,2013-08-26 18:40:00,
2013-08-26 14:55:00,76.6,69.0,29.98,SSW,202,4.0,-999.0,78,-99.99,,,0.00,weatherlink.com 1.10,2013-08-26 18:55:00,
2013-08-26 15:10:00,77.4,70.0,29.98,SW,227,0.0,-999.0,77,-99.99,,,0.00,weatherlink.com 1.10,2013-08-26 19:10:00,
2013-08-26 15:25:00,78.0,70.0,29.98,WSW,244,3.0,-999.0,76,-99.99,,,0.00,weatherlink.com 1.10,2013-08-26 19:25:00,
2013-08-26 15:40:00,78.1,70.0,29.98,SW,228,5.0,-999.0,76,-99.99,,,0.00,weatherlink.com 1.10,2013-08-26 19:40:00,
2013-08-26 15:55:00,78.7,70.0,29.97,SW,216,7.0,-999.0,75,-99.99,,,0.00,weatherlink.com 1.10,2013-08-26 19:55:00,
2013-08-26 16:10:00,80.1,71.0,29.96,SW,226,10.0,-999.0,74,-99.99,,,0.00,weatherlink.com 1.10,2013-08-26 20:10:00,
2013-08-26 16:25:00,80.2,72.0,29.96,SSW,209,6.0,-999.0,75,-99.99,,,0.00,weatherlink.com 1.10,2013-08-26 20:25:00,
2013-08-26 16:40:00,80.7,71.0,29.97,WSW,256,11.0,-999.0,71,-99.99,,,0.00,weatherlink.com 1.10,2013-08-26 20:40:00,
2013-08-26 16:55:00,80.6,71.0,29.97,WSW,241,7.0,-999.0,72,-99.99,,,0.00,weatherlink.com 1.10,2013-08-26 20:55:00,
2013-08-26 17:10:00,81.4,71.0,29.97,SW,229,10.0,-999.0,70,-99.99,,,0.00,weatherlink.com 1.10,2013-08-26 21:10:00,
2013-08-26 17:25:00,80.6,70.0,29.97,SW,220,9.0,-999.0,71,-99.99,,,0.00,weatherlink.com 1.10,2013-08-26 21:25:00,
2013-08-26 17:40:00,81.2,70.0,29.97,SSW,207,10.0,-999.0,69,-99.99,,,0.00,weatherlink.com 1.10,2013-08-26 21:40:00,
2013-08-26 17:55:00,81.9,71.0,29.97,SW,235,6.0,-999.0,69,-99.99,,,0.00,weatherlink.com 1.10,2013-08-26 21:55:00,
2013-08-26 18:10:00,81.6,71.0,29.96,WSW,240,5.0,-999.0,70,-99.99,,,0.00,weatherlink.com 1.10,2013-08-26 22:10:00,
2013-08-26 18:25:00,81.7,71.0,29.96,SW,233,1.0,-999.0,70,-99.99,,,0.00,weatherlink.com 1.10,2013-08-26 22:25:00,
2013-08-26 18:40:00,81.3,71.0,29.96,SW,236,0.0,-999.0,70,-99.99,,,0.00,weatherlink.com 1.10,2013-08-26 22:40:00,
2013-08-26 18:55:00,80.5,71.0,29.95,SW,234,5.0,-999.0,73,-99.99,,,0.00,weatherlink.com 1.10,2013-08-26 22:55:00,
2013-08-26 19:10:00,80.0,71.0,29.95,SW,219,3.0,-999.0,74,-99.99,,,0.00,weatherlink.com 1.10,2013-08-26 23:10:00,
2013-08-26 19:25:00,79.9,71.0,29.95,SW,218,0.0,-999.0,74,-99.99,,,0.00,weatherlink.com 1.10,2013-08-26 23:25:00,
2013-08-26 19:40:00,79.6,71.0,29.95,SW,218,0.0,-999.0,76,-99.99,,,0.00,weatherlink.com 1.10,2013-08-26 23:40:00,
2013-08-26 19:55:00,79.7,72.0,29.95,SW,218,0.0,-999.0,76,-99.99,,,0.00,weatherlink.com 1.10,2013-08-26 23:55:00,
2013-08-26 20:10:00,79.1,72.0,29.95,SW,218,0.0,-999.0,78,-99.99,,,0.00,weatherlink.com 1.10,2013-08-27 00:10:00,
2013-08-26 20:25:00,78.6,72.0,29.94,SW,218,0.0,-999.0,79,-99.99,,,0.00,weatherlink.com 1.10,2013-08-27 00:25:00,
2013-08-26 20:40:00,77.7,71.0,29.94,SW,218,0.0,-999.0,80,-99.99,,,0.00,weatherlink.com 1.10,2013-08-27 00:40:00,
2013-08-26 20:55:00,76.7,71.0,29.94,SW,218,0.0,-999.0,82,-99.99,,,0.00,weatherlink.com 1.10,2013-08-27 00:55:00,
2013-08-26 21:10:00,75.7,71.0,29.94,SW,218,0.0,-999.0,85,-99.99,,,0.00,weatherlink.com 1.10,2013-08-27 01:10:00,
2013-08-26 21:25:00,75.1,71.0,29.94,SW,218,0.0,-999.0,86,-99.99,,,0.00,weatherlink.com 1.10,2013-08-27 01:25:00,
2013-08-26 21:40:00,74.4,70.0,29.94,SW,218,0.0,-999.0,87,-99.99,,,0.00,weatherlink.com 1.10,2013-08-27 01:40:00,
2013-08-26 21:55:00,74.2,71.0,29.95,SW,218,0.0,-999.0,88,-99.99,,,0.00,weatherlink.com 1.10,2013-08-27 01:55:00,
2013-08-26 22:10:00,74.4,71.0,29.95,SW,218,0.0,-999.0,88,-99.99,,,0.00,weatherlink.com 1.10,2013-08-27 02:10:00,
2013-08-26 22:25:00,74.6,71.0,29.94,SW,218,0.0,-999.0,87,-99.99,,,0.00,weatherlink.com 1.10,2013-08-27 02:25:00,
2013-08-26 22:40:00,74.3,70.0,29.94,SW,218,0.0,-999.0,87,-99.99,,,0.00,weatherlink.com 1.10,2013-08-27 02:40:00,
2013-08-26 22:55:00,73.9,70.0,29.94,SW,218,0.0,-999.0,88,-99.99,,,0.00,weatherlink.com 1.10,2013-08-27 02:55:00,
2013-08-26 23:10:00,74.4,70.0,29.93,SW,225,3.0,-999.0,87,-99.99,,,0.00,weatherlink.com 1.10,2013-08-27 03:10:00,
2013-08-26 23:25:00,74.3,71.0,29.93,SW,229,3.0,-999.0,88,-99.99,,,0.00,weatherlink.com 1.10,2013-08-27 03:25:00,
2013-08-26 23:40:00,74.8,71.0,29.93,SW,236,3.0,-999.0,87,-99.99,,,0.00,weatherlink.com 1.10,2013-08-27 03:40:00,
2013-08-26 23:55:00,75.1,71.0,29.93,SW,229,5.0,-999.0,87,-99.99,,,0.00,weatherlink.com 1.10,2013-08-27 03:55:00,